createdAt,value
2022-10-06T10:12:25.576Z,44.12
2022-10-06T10:15:05.340Z,45.54
2022-10-06T10:17:39.258Z,45.17
2022-10-06T10:20:24.310Z,43.66
2022-10-06T10:22:53.102Z,42.09
2022-10-06T10:25:47.523Z,41.14
2022-10-06T10:28:42.102Z,38.83
2022-10-06T10:32:03.765Z,37.74
2022-10-06T10:35:16.143Z,41.25
2022-10-06T10:37:55.699Z,39.60
2022-10-06T10:40:51.315Z,37.42
2022-10-06T10:43:33.133Z,38.18
2022-10-06T10:46:21.852Z,36.94
2022-10-06T10:49:26.122Z,36.98
2022-10-06T10:52:20.428Z,35.66
2022-10-06T10:55:36.008Z,38.43
2022-10-06T10:58:25.032Z,39.64
2022-10-06T11:00:58.092Z,39.09
2022-10-06T11:04:10.930Z,38.37
2022-10-06T11:06:52.331Z,37.78
2022-10-06T11:09:30.801Z,36.20
2022-10-06T11:12:22.332Z,36.11
2022-10-06T11:15:36.743Z,34.10
2022-10-06T11:18:46.527Z,36.53
2022-10-06T11:21:41.659Z,35.33
2022-10-06T11:24:43.541Z,34.57
2022-10-06T11:27:25.947Z,33.31
2022-10-06T11:30:05.860Z,34.33
2022-10-06T11:32:44.960Z,33.58
2022-10-06T11:35:26.350Z,32.36
2022-10-06T11:38:12.874Z,33.73
2022-10-06T11:41:10.004Z,33.55
2022-10-06T11:44:32.149Z,32.23
2022-10-06T11:47:10.222Z,30.30
2022-10-06T11:49:52.583Z,30.00
2022-10-06T11:52:29.986Z,29.73
2022-10-06T11:55:29.422Z,30.15
2022-10-06T11:58:37.889Z,30.06
2022-10-06T12:01:21.792Z,30.86
2022-10-06T12:04:11.495Z,31.85
2022-10-06T12:06:41.324Z,30.83
2022-10-06T12:09:25.630Z,31.30
2022-10-06T12:11:59.889Z,30.77
2022-10-06T12:16:55.280Z,31.36
2022-10-06T12:17:54.854Z,29.57
2022-10-06T12:20:54.047Z,31.10
2022-10-06T12:23:46.793Z,31.02
2022-10-06T12:26:50.381Z,28.84
2022-10-06T12:29:41.013Z,30.33
2022-10-06T12:32:18.444Z,31.34
2022-10-06T12:35:03.893Z,31.62
2022-10-06T12:37:53.094Z,30.80
2022-10-06T12:41:08.281Z,31.16
2022-10-06T12:43:55.179Z,28.59
2022-10-06T12:46:31.194Z,30.74
2022-10-06T12:49:31.383Z,30.81
2022-10-06T12:52:10.061Z,29.57
2022-10-06T12:55:03.272Z,29.62
2022-10-06T12:57:53.687Z,29.29
2022-10-06T13:00:32.616Z,31.10
2022-10-06T13:03:05.753Z,32.25
2022-10-06T13:05:35.728Z,33.17
2022-10-06T13:08:05.804Z,31.32
2022-10-06T13:10:33.861Z,32.32
2022-10-06T13:13:01.409Z,29.02
2022-10-06T13:15:35.050Z,30.79
2022-10-06T13:18:04.805Z,31.21
2022-10-06T13:20:35.725Z,31.73
2022-10-06T13:23:14.999Z,32.73
2022-10-06T13:25:44.827Z,33.00
2022-10-06T13:28:44.159Z,33.90
2022-10-06T13:31:24.191Z,35.87
2022-10-06T13:34:04.094Z,36.08
2022-10-06T13:36:35.111Z,36.82
2022-10-06T13:39:11.562Z,37.31
2022-10-06T13:42:02.694Z,38.19
2022-10-06T13:44:49.928Z,38.38
2022-10-06T13:47:22.220Z,36.65
2022-10-06T13:50:08.044Z,37.50
2022-10-06T13:52:47.612Z,38.01
2022-10-06T13:55:39.769Z,38.14
2022-10-06T13:58:09.618Z,36.76
2022-10-06T14:01:30.841Z,37.29
2022-10-06T14:04:46.157Z,38.03
2022-10-06T14:07:50.458Z,38.19
2022-10-06T14:10:41.724Z,37.99
2022-10-06T14:13:41.493Z,38.56
2022-10-06T14:16:17.695Z,39.18
2022-10-06T14:18:59.238Z,39.91
2022-10-06T14:21:41.279Z,40.91
2022-10-06T14:24:38.891Z,40.91
2022-10-06T14:27:06.469Z,40.37
2022-10-06T14:29:37.547Z,42.43
2022-10-06T14:32:27.862Z,42.18
2022-10-06T14:35:00.804Z,42.61
2022-10-06T14:37:46.378Z,42.77
2022-10-06T14:40:15.899Z,42.35
2022-10-06T14:42:54.874Z,43.46
2022-10-06T14:45:28.469Z,43.77
2022-10-06T14:47:57.074Z,43.96
2022-10-06T14:51:03.769Z,44.46
2022-10-06T14:54:11.082Z,44.80
2022-10-06T14:56:46.826Z,45.06
2022-10-06T14:59:56.526Z,45.40
2022-10-06T15:03:15.750Z,46.06
2022-10-06T15:06:08.891Z,46.29
2022-10-06T15:09:06.329Z,47.54
2022-10-06T15:11:40.243Z,47.87
2022-10-06T15:14:28.789Z,47.96
2022-10-06T15:17:12.448Z,48.50
2022-10-06T15:19:43.879Z,49.22
2022-10-06T15:22:10.609Z,49.65
2022-10-06T15:25:05.890Z,49.85
2022-10-06T15:28:12.757Z,49.85
2022-10-06T15:31:11.749Z,50.19
2022-10-06T15:34:19.439Z,50.58
2022-10-06T15:37:07.035Z,50.52
2022-10-06T15:39:57.979Z,51.01
2022-10-06T15:42:46.178Z,51.63
2022-10-06T15:45:13.353Z,51.82
2022-10-06T15:47:42.025Z,52.02
2022-10-06T15:50:12.113Z,52.21
2022-10-06T15:52:44.816Z,52.88
2022-10-06T15:55:32.370Z,53.53
2022-10-06T15:57:59.719Z,53.83
2022-10-06T16:00:27.832Z,54.08
2022-10-06T16:03:40.957Z,54.46
2022-10-06T16:06:49.931Z,54.88
2022-10-06T16:09:19.640Z,54.82
2022-10-06T16:12:04.139Z,54.97
2022-10-06T16:14:44.599Z,55.53
2022-10-06T16:17:32.117Z,55.63
2022-10-06T16:20:22.107Z,55.69
2022-10-06T16:22:52.160Z,56.27
2022-10-06T16:25:21.041Z,56.94
2022-10-06T16:27:54.076Z,57.51
2022-10-06T16:30:34.119Z,57.41
2022-10-06T16:33:08.197Z,58.16
2022-10-06T16:36:05.694Z,59.19
2022-10-06T16:38:34.038Z,59.60
2022-10-06T16:41:21.029Z,60.01
2022-10-06T16:43:54.107Z,60.49
2022-10-06T16:47:19.096Z,61.11
2022-10-06T16:50:17.427Z,62.84
2022-10-06T16:52:45.580Z,62.41
2022-10-06T16:55:24.151Z,63.74
2022-10-06T16:58:10.243Z,64.16
2022-10-06T17:00:59.869Z,67.37
2022-10-06T17:04:44.217Z,67.68
2022-10-06T17:07:32.912Z,67.18
2022-10-06T17:11:02.014Z,69.75
2022-10-06T17:13:51.622Z,68.45
2022-10-06T17:16:22.397Z,70.82
2022-10-06T17:19:25.514Z,70.86
2022-10-06T17:21:58.994Z,71.17
2022-10-06T17:24:36.745Z,72.33
2022-10-06T17:27:07.931Z,71.65
2022-10-06T17:29:39.255Z,71.09
2022-10-06T17:32:46.688Z,72.19
2022-10-06T17:35:15.196Z,73.35
2022-10-06T17:38:08.048Z,74.91
2022-10-06T17:40:55.902Z,77.67
2022-10-06T17:43:47.095Z,78.61
2022-10-06T17:46:21.866Z,78.71
2022-10-06T17:49:11.643Z,78.52
2022-10-06T17:51:58.588Z,77.33
2022-10-06T17:55:19.266Z,76.97
2022-10-06T17:58:26.138Z,76.65
2022-10-06T18:01:39.163Z,76.91
2022-10-06T18:04:28.819Z,77.23
2022-10-06T18:07:22.416Z,77.55
2022-10-06T18:10:48.028Z,77.86
2022-10-06T18:13:22.957Z,79.65
2022-10-06T18:16:00.324Z,80.96
2022-10-06T18:19:06.093Z,79.52
2022-10-06T18:21:41.413Z,80.46
2022-10-06T18:24:34.023Z,79.49
2022-10-06T18:27:01.616Z,79.07
2022-10-06T18:30:33.990Z,79.08
2022-10-06T18:36:10.967Z,79.40
2022-10-06T18:36:46.073Z,79.63
2022-10-06T18:39:40.004Z,79.26
2022-10-06T18:42:08.873Z,79.78
2022-10-06T18:45:01.829Z,80.46
2022-10-06T18:48:30.131Z,81.05
2022-10-06T18:51:32.263Z,80.64
2022-10-06T18:54:04.828Z,81.04
2022-10-06T18:57:00.340Z,82.34
2022-10-06T18:59:45.963Z,83.20
2022-10-06T19:02:13.148Z,83.98
2022-10-06T19:05:18.912Z,83.92
2022-10-06T19:07:46.374Z,84.20
2022-10-06T19:10:16.892Z,83.92
2022-10-06T19:13:08.556Z,84.59
2022-10-06T19:15:55.810Z,85.31
2022-10-06T19:18:42.811Z,85.66
2022-10-06T19:21:39.903Z,85.34
2022-10-06T19:24:30.594Z,85.44
2022-10-06T19:27:28.814Z,85.18
2022-10-06T19:30:06.144Z,84.74
2022-10-06T19:32:56.111Z,84.97
2022-10-06T19:35:58.263Z,84.41
2022-10-06T19:38:46.403Z,84.76
2022-10-06T19:41:54.127Z,84.21
2022-10-06T19:44:35.773Z,83.99
2022-10-06T19:47:06.647Z,83.87
2022-10-06T19:49:44.611Z,83.73
2022-10-06T19:52:26.768Z,83.53
2022-10-06T19:55:03.416Z,83.39
2022-10-06T19:58:10.915Z,83.73
2022-10-06T20:01:00.507Z,83.41
2022-10-06T20:03:27.345Z,84.04
2022-10-06T20:06:02.929Z,83.81
2022-10-06T20:08:49.931Z,84.18
2022-10-06T20:11:21.233Z,83.97
2022-10-06T20:13:51.606Z,84.76
2022-10-06T20:16:21.838Z,83.79
2022-10-06T20:19:09.340Z,83.80
2022-10-06T20:21:51.173Z,83.55
2022-10-06T20:24:25.590Z,83.59
2022-10-06T20:27:00.170Z,83.29
2022-10-06T20:29:32.418Z,83.20
2022-10-06T20:32:19.642Z,84.32
2022-10-06T20:34:56.406Z,84.71
2022-10-06T20:37:24.788Z,83.79
2022-10-06T20:40:10.442Z,84.30
2022-10-06T20:42:45.806Z,84.01
2022-10-06T20:45:16.103Z,84.14
2022-10-06T20:48:01.777Z,83.74
2022-10-06T20:50:59.541Z,83.36
2022-10-06T20:53:47.581Z,83.40
2022-10-06T20:56:15.619Z,83.33
2022-10-06T20:58:46.479Z,84.00
2022-10-06T21:01:16.241Z,84.97
2022-10-06T21:04:07.684Z,85.42
2022-10-06T21:06:40.947Z,85.21
2022-10-06T21:09:28.925Z,85.08
2022-10-06T21:11:57.562Z,85.07
2022-10-06T21:14:29.562Z,85.91
2022-10-06T21:17:19.894Z,86.71
2022-10-06T21:20:09.401Z,88.35
2022-10-06T21:23:06.059Z,89.46
2022-10-06T21:25:38.056Z,91.48
2022-10-06T21:28:24.936Z,91.14
2022-10-06T21:31:22.121Z,89.99
2022-10-06T21:33:52.417Z,91.42
2022-10-06T21:36:46.695Z,90.22
2022-10-06T21:39:17.585Z,90.63
2022-10-06T21:42:21.007Z,89.89
2022-10-06T21:44:51.001Z,89.23
2022-10-06T21:47:24.990Z,88.48
2022-10-06T21:50:10.301Z,88.61
2022-10-06T21:53:17.725Z,88.05
2022-10-06T21:56:21.594Z,88.39
2022-10-06T21:59:04.175Z,88.22
